sensor_id;sensor_type;location;lat;lon;timestamp;P1;durP1;ratioP1;P2;durP2;ratioP2
29092;SDS011;16167;48.768;14.984;2022-08-21T00:00:58;15.93;;;14.23;;
29092;SDS011;16167;48.768;14.984;2022-08-21T00:03:32;15.75;;;13.63;;
29092;SDS011;16167;48.768;14.984;2022-08-21T00:06:02;19.13;;;14.00;;
29092;SDS011;16167;48.768;14.984;2022-08-21T00:08:30;18.27;;;13.88;;
29092;SDS011;16167;48.768;14.984;2022-08-21T00:10:58;17.27;;;14.23;;
29092;SDS011;16167;48.768;14.984;2022-08-21T00:13:26;16.75;;;13.20;;
29092;SDS011;16167;48.768;14.984;2022-08-21T00:15:55;16.15;;;13.45;;
29092;SDS011;16167;48.768;14.984;2022-08-21T00:18:23;18.60;;;14.60;;
29092;SDS011;16167;48.768;14.984;2022-08-21T00:20:52;18.80;;;14.93;;
29092;SDS011;16167;48.768;14.984;2022-08-21T00:23:21;19.63;;;15.03;;
29092;SDS011;16167;48.768;14.984;2022-08-21T00:25:50;19.73;;;13.73;;
29092;SDS011;16167;48.768;14.984;2022-08-21T00:28:18;15.02;;;12.77;;
29092;SDS011;16167;48.768;14.984;2022-08-21T00:30:46;16.58;;;14.23;;
29092;SDS011;16167;48.768;14.984;2022-08-21T00:33:14;13.90;;;12.40;;
29092;SDS011;16167;48.768;14.984;2022-08-21T00:35:42;16.83;;;12.98;;
29092;SDS011;16167;48.768;14.984;2022-08-21T00:38:10;14.38;;;11.90;;
29092;SDS011;16167;48.768;14.984;2022-08-21T00:40:41;15.20;;;12.43;;
29092;SDS011;16167;48.768;14.984;2022-08-21T00:43:12;15.55;;;12.23;;
29092;SDS011;16167;48.768;14.984;2022-08-21T00:45:42;14.45;;;12.35;;
29092;SDS011;16167;48.768;14.984;2022-08-21T00:48:11;14.50;;;11.55;;
29092;SDS011;16167;48.768;14.984;2022-08-21T00:50:40;13.75;;;11.68;;
29092;SDS011;16167;48.768;14.984;2022-08-21T00:53:11;13.60;;;11.13;;
29092;SDS011;16167;48.768;14.984;2022-08-21T00:55:41;12.63;;;10.80;;
29092;SDS011;16167;48.768;14.984;2022-08-21T00:58:11;13.05;;;10.52;;
29092;SDS011;16167;48.768;14.984;2022-08-21T01:00:45;14.25;;;11.52;;
29092;SDS011;16167;48.768;14.984;2022-08-21T01:03:15;18.80;;;12.60;;
29092;SDS011;16167;48.768;14.984;2022-08-21T01:05:49;15.18;;;11.60;;
29092;SDS011;16167;48.768;14.984;2022-08-21T01:10:49;14.57;;;12.30;;
29092;SDS011;16167;48.768;14.984;2022-08-21T01:13:20;18.50;;;12.68;;
29092;SDS011;16167;48.768;14.984;2022-08-21T01:15:51;14.27;;;12.63;;
29092;SDS011;16167;48.768;14.984;2022-08-21T01:18:23;14.68;;;12.20;;
29092;SDS011;16167;48.768;14.984;2022-08-21T01:21:03;19.13;;;12.38;;
29092;SDS011;16167;48.768;14.984;2022-08-21T01:23:33;20.08;;;13.50;;
29092;SDS011;16167;48.768;14.984;2022-08-21T01:26:02;12.27;;;10.85;;
29092;SDS011;16167;48.768;14.984;2022-08-21T01:28:31;16.88;;;13.75;;
29092;SDS011;16167;48.768;14.984;2022-08-21T01:31:04;20.70;;;14.27;;
29092;SDS011;16167;48.768;14.984;2022-08-21T01:33:34;22.55;;;16.33;;
29092;SDS011;16167;48.768;14.984;2022-08-21T01:36:05;18.55;;;15.00;;
29092;SDS011;16167;48.768;14.984;2022-08-21T01:38:33;18.27;;;15.30;;
29092;SDS011;16167;48.768;14.984;2022-08-21T01:41:02;19.20;;;14.95;;
29092;SDS011;16167;48.768;14.984;2022-08-21T01:43:30;21.02;;;15.55;;
29092;SDS011;16167;48.768;14.984;2022-08-21T01:46:05;18.40;;;14.27;;
29092;SDS011;16167;48.768;14.984;2022-08-21T01:48:33;19.95;;;15.57;;
29092;SDS011;16167;48.768;14.984;2022-08-21T01:51:01;18.50;;;14.55;;
29092;SDS011;16167;48.768;14.984;2022-08-21T01:53:32;18.58;;;14.55;;
29092;SDS011;16167;48.768;14.984;2022-08-21T01:56:02;19.33;;;15.02;;
29092;SDS011;16167;48.768;14.984;2022-08-21T01:58:38;18.30;;;14.48;;
29092;SDS011;16167;48.768;14.984;2022-08-21T02:01:07;16.73;;;14.27;;
29092;SDS011;16167;48.768;14.984;2022-08-21T02:03:36;16.50;;;14.30;;
29092;SDS011;16167;48.768;14.984;2022-08-21T02:06:05;20.20;;;16.17;;
29092;SDS011;16167;48.768;14.984;2022-08-21T02:08:40;19.25;;;15.55;;
29092;SDS011;16167;48.768;14.984;2022-08-21T02:11:08;23.25;;;16.23;;
29092;SDS011;16167;48.768;14.984;2022-08-21T02:13:36;23.50;;;17.10;;
29092;SDS011;16167;48.768;14.984;2022-08-21T02:16:05;18.52;;;15.65;;
29092;SDS011;16167;48.768;14.984;2022-08-21T02:18:34;20.13;;;15.80;;
29092;SDS011;16167;48.768;14.984;2022-08-21T02:21:02;21.38;;;17.67;;
29092;SDS011;16167;48.768;14.984;2022-08-21T02:23:31;23.50;;;17.65;;
29092;SDS011;16167;48.768;14.984;2022-08-21T02:26:03;20.63;;;16.83;;
29092;SDS011;16167;48.768;14.984;2022-08-21T02:28:33;20.63;;;17.13;;
29092;SDS011;16167;48.768;14.984;2022-08-21T02:31:02;21.38;;;15.95;;
29092;SDS011;16167;48.768;14.984;2022-08-21T02:33:30;20.60;;;16.92;;
29092;SDS011;16167;48.768;14.984;2022-08-21T02:38:29;20.45;;;16.63;;
29092;SDS011;16167;48.768;14.984;2022-08-21T02:40:59;21.05;;;17.35;;
29092;SDS011;16167;48.768;14.984;2022-08-21T02:43:29;21.65;;;17.33;;
29092;SDS011;16167;48.768;14.984;2022-08-21T02:45:57;20.42;;;16.58;;
29092;SDS011;16167;48.768;14.984;2022-08-21T02:48:26;24.77;;;18.35;;
29092;SDS011;16167;48.768;14.984;2022-08-21T02:50:56;19.80;;;16.10;;
29092;SDS011;16167;48.768;14.984;2022-08-21T02:55:54;19.95;;;16.25;;
29092;SDS011;16167;48.768;14.984;2022-08-21T02:58:27;21.65;;;17.60;;
29092;SDS011;16167;48.768;14.984;2022-08-21T03:00:57;24.25;;;18.08;;
29092;SDS011;16167;48.768;14.984;2022-08-21T03:03:25;24.35;;;18.52;;
29092;SDS011;16167;48.768;14.984;2022-08-21T03:08:23;22.35;;;17.92;;
29092;SDS011;16167;48.768;14.984;2022-08-21T03:13:21;21.95;;;17.73;;
29092;SDS011;16167;48.768;14.984;2022-08-21T03:15:51;25.92;;;19.40;;
29092;SDS011;16167;48.768;14.984;2022-08-21T03:18:20;25.58;;;20.30;;
29092;SDS011;16167;48.768;14.984;2022-08-21T03:20:48;24.20;;;18.88;;
29092;SDS011;16167;48.768;14.984;2022-08-21T03:23:16;26.90;;;20.30;;
29092;SDS011;16167;48.768;14.984;2022-08-21T03:25:45;24.13;;;18.67;;
29092;SDS011;16167;48.768;14.984;2022-08-21T03:28:15;23.77;;;18.65;;
29092;SDS011;16167;48.768;14.984;2022-08-21T03:30:45;23.45;;;17.55;;
29092;SDS011;16167;48.768;14.984;2022-08-21T03:33:16;23.08;;;18.60;;
29092;SDS011;16167;48.768;14.984;2022-08-21T03:35:52;25.42;;;19.65;;
29092;SDS011;16167;48.768;14.984;2022-08-21T03:38:27;29.27;;;20.48;;
29092;SDS011;16167;48.768;14.984;2022-08-21T03:40:57;25.27;;;20.00;;
29092;SDS011;16167;48.768;14.984;2022-08-21T03:43:26;25.83;;;19.73;;
29092;SDS011;16167;48.768;14.984;2022-08-21T03:45:57;22.05;;;18.70;;
29092;SDS011;16167;48.768;14.984;2022-08-21T03:48:27;24.15;;;19.45;;
29092;SDS011;16167;48.768;14.984;2022-08-21T03:53:23;26.77;;;19.40;;
29092;SDS011;16167;48.768;14.984;2022-08-21T03:55:52;24.40;;;18.63;;
29092;SDS011;16167;48.768;14.984;2022-08-21T03:58:23;26.90;;;19.08;;
29092;SDS011;16167;48.768;14.984;2022-08-21T04:00:53;29.42;;;20.73;;
29092;SDS011;16167;48.768;14.984;2022-08-21T04:03:23;28.30;;;20.77;;
29092;SDS011;16167;48.768;14.984;2022-08-21T04:05:54;26.98;;;21.25;;
29092;SDS011;16167;48.768;14.984;2022-08-21T04:08:23;23.70;;;19.33;;
29092;SDS011;16167;48.768;14.984;2022-08-21T04:10:52;26.90;;;20.73;;
29092;SDS011;16167;48.768;14.984;2022-08-21T04:13:22;25.52;;;19.98;;
29092;SDS011;16167;48.768;14.984;2022-08-21T04:15:50;27.77;;;20.92;;
29092;SDS011;16167;48.768;14.984;2022-08-21T04:18:19;25.73;;;20.25;;
29092;SDS011;16167;48.768;14.984;2022-08-21T04:20:47;26.08;;;20.23;;
29092;SDS011;16167;48.768;14.984;2022-08-21T04:23:19;26.55;;;20.70;;
29092;SDS011;16167;48.768;14.984;2022-08-21T04:25:50;29.05;;;20.80;;
29092;SDS011;16167;48.768;14.984;2022-08-21T04:28:18;30.02;;;20.63;;
29092;SDS011;16167;48.768;14.984;2022-08-21T04:30:48;29.75;;;21.00;;
29092;SDS011;16167;48.768;14.984;2022-08-21T04:33:18;23.88;;;18.50;;
29092;SDS011;16167;48.768;14.984;2022-08-21T04:35:46;23.25;;;18.52;;
29092;SDS011;16167;48.768;14.984;2022-08-21T04:38:15;27.15;;;20.95;;
29092;SDS011;16167;48.768;14.984;2022-08-21T04:40:44;24.52;;;19.00;;
29092;SDS011;16167;48.768;14.984;2022-08-21T04:43:13;26.92;;;20.65;;
29092;SDS011;16167;48.768;14.984;2022-08-21T04:45:41;24.88;;;18.30;;
29092;SDS011;16167;48.768;14.984;2022-08-21T04:48:12;22.67;;;18.40;;
29092;SDS011;16167;48.768;14.984;2022-08-21T04:50:41;22.95;;;17.70;;
29092;SDS011;16167;48.768;14.984;2022-08-21T04:53:16;23.95;;;18.55;;
29092;SDS011;16167;48.768;14.984;2022-08-21T04:55:49;26.02;;;18.90;;
29092;SDS011;16167;48.768;14.984;2022-08-21T04:58:19;23.33;;;19.20;;
29092;SDS011;16167;48.768;14.984;2022-08-21T05:00:50;24.65;;;18.17;;
29092;SDS011;16167;48.768;14.984;2022-08-21T05:03:21;24.23;;;18.65;;
29092;SDS011;16167;48.768;14.984;2022-08-21T05:05:50;23.00;;;17.50;;
29092;SDS011;16167;48.768;14.984;2022-08-21T05:08:18;21.42;;;17.02;;
29092;SDS011;16167;48.768;14.984;2022-08-21T05:10:50;21.35;;;17.05;;
29092;SDS011;16167;48.768;14.984;2022-08-21T05:13:25;21.60;;;18.00;;
29092;SDS011;16167;48.768;14.984;2022-08-21T05:15:53;23.33;;;18.35;;
29092;SDS011;16167;48.768;14.984;2022-08-21T05:18:21;20.15;;;16.48;;
29092;SDS011;16167;48.768;14.984;2022-08-21T05:20:50;20.73;;;16.40;;
29092;SDS011;16167;48.768;14.984;2022-08-21T05:23:18;19.40;;;15.57;;
29092;SDS011;16167;48.768;14.984;2022-08-21T05:25:46;20.40;;;17.02;;
29092;SDS011;16167;48.768;14.984;2022-08-21T05:28:15;23.70;;;17.73;;
29092;SDS011;16167;48.768;14.984;2022-08-21T05:30:44;21.80;;;16.98;;
29092;SDS011;16167;48.768;14.984;2022-08-21T05:33:13;22.38;;;17.33;;
29092;SDS011;16167;48.768;14.984;2022-08-21T05:35:41;23.00;;;17.13;;
29092;SDS011;16167;48.768;14.984;2022-08-21T05:38:09;20.15;;;17.65;;
29092;SDS011;16167;48.768;14.984;2022-08-21T05:40:43;23.05;;;18.35;;
29092;SDS011;16167;48.768;14.984;2022-08-21T05:43:11;24.17;;;18.73;;
29092;SDS011;16167;48.768;14.984;2022-08-21T05:45:40;20.88;;;16.98;;
29092;SDS011;16167;48.768;14.984;2022-08-21T05:48:11;25.05;;;17.95;;
29092;SDS011;16167;48.768;14.984;2022-08-21T05:50:40;24.08;;;19.15;;
29092;SDS011;16167;48.768;14.984;2022-08-21T05:53:09;21.40;;;18.00;;
29092;SDS011;16167;48.768;14.984;2022-08-21T05:55:38;25.10;;;17.23;;
29092;SDS011;16167;48.768;14.984;2022-08-21T05:58:12;20.70;;;17.40;;
29092;SDS011;16167;48.768;14.984;2022-08-21T06:00:42;19.48;;;16.33;;
29092;SDS011;16167;48.768;14.984;2022-08-21T06:03:14;21.90;;;16.58;;
29092;SDS011;16167;48.768;14.984;2022-08-21T06:05:44;18.55;;;16.20;;
29092;SDS011;16167;48.768;14.984;2022-08-21T06:08:14;21.60;;;16.43;;
29092;SDS011;16167;48.768;14.984;2022-08-21T06:10:42;17.35;;;14.88;;
29092;SDS011;16167;48.768;14.984;2022-08-21T06:13:11;18.10;;;15.95;;
29092;SDS011;16167;48.768;14.984;2022-08-21T06:15:41;18.17;;;15.75;;
29092;SDS011;16167;48.768;14.984;2022-08-21T06:18:10;20.70;;;14.85;;
29092;SDS011;16167;48.768;14.984;2022-08-21T06:20:40;16.85;;;14.55;;
29092;SDS011;16167;48.768;14.984;2022-08-21T06:23:08;18.85;;;15.70;;
29092;SDS011;16167;48.768;14.984;2022-08-21T06:25:37;17.42;;;14.77;;
29092;SDS011;16167;48.768;14.984;2022-08-21T06:28:06;17.70;;;15.50;;
29092;SDS011;16167;48.768;14.984;2022-08-21T06:30:37;18.75;;;15.45;;
29092;SDS011;16167;48.768;14.984;2022-08-21T06:33:07;15.25;;;13.63;;
29092;SDS011;16167;48.768;14.984;2022-08-21T06:38:07;15.82;;;14.05;;
29092;SDS011;16167;48.768;14.984;2022-08-21T06:40:35;12.70;;;10.83;;
29092;SDS011;16167;48.768;14.984;2022-08-21T06:43:13;15.75;;;13.35;;
29092;SDS011;16167;48.768;14.984;2022-08-21T06:45:43;17.58;;;14.20;;
29092;SDS011;16167;48.768;14.984;2022-08-21T06:48:13;16.83;;;13.35;;
29092;SDS011;16167;48.768;14.984;2022-08-21T06:50:45;15.30;;;13.68;;
29092;SDS011;16167;48.768;14.984;2022-08-21T06:53:14;15.23;;;13.27;;
29092;SDS011;16167;48.768;14.984;2022-08-21T06:55:44;14.90;;;13.25;;
29092;SDS011;16167;48.768;14.984;2022-08-21T06:58:13;15.50;;;13.80;;
29092;SDS011;16167;48.768;14.984;2022-08-21T07:00:42;14.97;;;13.30;;
29092;SDS011;16167;48.768;14.984;2022-08-21T07:03:21;14.48;;;12.98;;
29092;SDS011;16167;48.768;14.984;2022-08-21T07:05:51;14.60;;;13.07;;
29092;SDS011;16167;48.768;14.984;2022-08-21T07:08:19;16.05;;;13.38;;
29092;SDS011;16167;48.768;14.984;2022-08-21T07:10:48;14.45;;;13.02;;
29092;SDS011;16167;48.768;14.984;2022-08-21T07:13:16;13.47;;;12.03;;
29092;SDS011;16167;48.768;14.984;2022-08-21T07:15:45;12.50;;;10.80;;
29092;SDS011;16167;48.768;14.984;2022-08-21T07:18:13;13.50;;;11.20;;
29092;SDS011;16167;48.768;14.984;2022-08-21T07:20:43;12.00;;;10.80;;
29092;SDS011;16167;48.768;14.984;2022-08-21T07:25:40;13.00;;;10.90;;
29092;SDS011;16167;48.768;14.984;2022-08-21T07:28:08;12.17;;;10.87;;
29092;SDS011;16167;48.768;14.984;2022-08-21T07:30:36;13.18;;;11.32;;
29092;SDS011;16167;48.768;14.984;2022-08-21T07:33:04;13.13;;;10.95;;
29092;SDS011;16167;48.768;14.984;2022-08-21T07:35:33;13.57;;;10.87;;
29092;SDS011;16167;48.768;14.984;2022-08-21T07:38:03;14.40;;;11.30;;
29092;SDS011;16167;48.768;14.984;2022-08-21T07:42:59;9.07;;;8.18;;
29092;SDS011;16167;48.768;14.984;2022-08-21T07:45:27;10.18;;;9.18;;
29092;SDS011;16167;48.768;14.984;2022-08-21T07:47:55;10.85;;;9.75;;
29092;SDS011;16167;48.768;14.984;2022-08-21T07:50:23;9.32;;;8.40;;
29092;SDS011;16167;48.768;14.984;2022-08-21T07:52:52;9.02;;;8.13;;
29092;SDS011;16167;48.768;14.984;2022-08-21T07:55:22;8.57;;;7.75;;
29092;SDS011;16167;48.768;14.984;2022-08-21T07:57:50;8.98;;;8.07;;
29092;SDS011;16167;48.768;14.984;2022-08-21T08:00:20;7.90;;;7.20;;
29092;SDS011;16167;48.768;14.984;2022-08-21T08:02:51;8.05;;;7.25;;
29092;SDS011;16167;48.768;14.984;2022-08-21T08:05:21;7.50;;;6.80;;
29092;SDS011;16167;48.768;14.984;2022-08-21T08:07:51;8.50;;;7.68;;
29092;SDS011;16167;48.768;14.984;2022-08-21T08:10:22;12.23;;;11.13;;
29092;SDS011;16167;48.768;14.984;2022-08-21T08:12:50;11.18;;;10.18;;
29092;SDS011;16167;48.768;14.984;2022-08-21T08:15:21;7.82;;;7.13;;
29092;SDS011;16167;48.768;14.984;2022-08-21T08:17:51;6.55;;;5.95;;
29092;SDS011;16167;48.768;14.984;2022-08-21T08:20:21;6.15;;;5.55;;
29092;SDS011;16167;48.768;14.984;2022-08-21T08:22:51;6.20;;;5.60;;
29092;SDS011;16167;48.768;14.984;2022-08-21T08:25:22;5.90;;;5.40;;
29092;SDS011;16167;48.768;14.984;2022-08-21T08:27:51;5.30;;;4.80;;
29092;SDS011;16167;48.768;14.984;2022-08-21T08:30:20;5.70;;;5.20;;
29092;SDS011;16167;48.768;14.984;2022-08-21T08:32:50;5.38;;;4.97;;
29092;SDS011;16167;48.768;14.984;2022-08-21T08:35:18;4.57;;;4.20;;
29092;SDS011;16167;48.768;14.984;2022-08-21T08:37:50;5.47;;;4.97;;
29092;SDS011;16167;48.768;14.984;2022-08-21T08:40:20;5.85;;;5.35;;
29092;SDS011;16167;48.768;14.984;2022-08-21T08:42:56;5.22;;;4.82;;
29092;SDS011;16167;48.768;14.984;2022-08-21T08:45:25;6.00;;;5.40;;
29092;SDS011;16167;48.768;14.984;2022-08-21T08:47:56;5.18;;;4.70;;
29092;SDS011;16167;48.768;14.984;2022-08-21T08:50:33;5.40;;;4.90;;
29092;SDS011;16167;48.768;14.984;2022-08-21T08:53:08;5.53;;;5.07;;
29092;SDS011;16167;48.768;14.984;2022-08-21T08:55:44;5.57;;;5.03;;
29092;SDS011;16167;48.768;14.984;2022-08-21T08:58:14;6.10;;;5.03;;
29092;SDS011;16167;48.768;14.984;2022-08-21T09:00:49;5.65;;;5.05;;
29092;SDS011;16167;48.768;14.984;2022-08-21T09:03:19;5.72;;;4.60;;
29092;SDS011;16167;48.768;14.984;2022-08-21T09:05:50;5.28;;;4.78;;
29092;SDS011;16167;48.768;14.984;2022-08-21T09:08:27;5.57;;;5.03;;
29092;SDS011;16167;48.768;14.984;2022-08-21T09:11:19;5.22;;;4.78;;
29092;SDS011;16167;48.768;14.984;2022-08-21T09:13:55;4.88;;;4.47;;
29092;SDS011;16167;48.768;14.984;2022-08-21T09:16:30;6.32;;;5.07;;
29092;SDS011;16167;48.768;14.984;2022-08-21T09:19:07;5.57;;;5.07;;
29092;SDS011;16167;48.768;14.984;2022-08-21T09:21:52;5.05;;;4.43;;
29092;SDS011;16167;48.768;14.984;2022-08-21T09:24:26;5.60;;;5.10;;
29092;SDS011;16167;48.768;14.984;2022-08-21T09:27:04;5.50;;;5.00;;
29092;SDS011;16167;48.768;14.984;2022-08-21T09:29:36;6.60;;;4.88;;
29092;SDS011;16167;48.768;14.984;2022-08-21T09:32:09;5.70;;;5.20;;
29092;SDS011;16167;48.768;14.984;2022-08-21T09:34:54;5.05;;;4.60;;
29092;SDS011;16167;48.768;14.984;2022-08-21T09:37:27;5.30;;;4.30;;
29092;SDS011;16167;48.768;14.984;2022-08-21T09:39:57;4.78;;;4.32;;
29092;SDS011;16167;48.768;14.984;2022-08-21T09:42:28;5.82;;;5.15;;
29092;SDS011;16167;48.768;14.984;2022-08-21T09:45:07;5.30;;;4.80;;
29092;SDS011;16167;48.768;14.984;2022-08-21T09:47:40;5.80;;;4.63;;
29092;SDS011;16167;48.768;14.984;2022-08-21T09:50:11;5.15;;;4.65;;
29092;SDS011;16167;48.768;14.984;2022-08-21T09:52:45;5.28;;;4.25;;
29092;SDS011;16167;48.768;14.984;2022-08-21T09:55:23;4.70;;;4.30;;
29092;SDS011;16167;48.768;14.984;2022-08-21T10:00:56;5.30;;;4.80;;
29092;SDS011;16167;48.768;14.984;2022-08-21T10:03:25;6.22;;;4.43;;
29092;SDS011;16167;48.768;14.984;2022-08-21T10:05:56;5.57;;;5.07;;
29092;SDS011;16167;48.768;14.984;2022-08-21T10:08:25;5.28;;;4.88;;
29092;SDS011;16167;48.768;14.984;2022-08-21T10:10:56;6.20;;;5.60;;
29092;SDS011;16167;48.768;14.984;2022-08-21T10:13:32;5.05;;;4.57;;
29092;SDS011;16167;48.768;14.984;2022-08-21T10:16:18;5.82;;;5.32;;
29092;SDS011;16167;48.768;14.984;2022-08-21T10:19:02;5.07;;;4.68;;
29092;SDS011;16167;48.768;14.984;2022-08-21T10:21:41;5.68;;;5.18;;
29092;SDS011;16167;48.768;14.984;2022-08-21T10:24:18;5.45;;;4.95;;
29092;SDS011;16167;48.768;14.984;2022-08-21T10:27:00;5.00;;;4.57;;
29092;SDS011;16167;48.768;14.984;2022-08-21T10:29:45;5.05;;;4.57;;
29092;SDS011;16167;48.768;14.984;2022-08-21T10:35:36;4.60;;;4.20;;
29092;SDS011;16167;48.768;14.984;2022-08-21T10:38:31;4.68;;;4.28;;
29092;SDS011;16167;48.768;14.984;2022-08-21T10:41:38;5.18;;;4.68;;
29092;SDS011;16167;48.768;14.984;2022-08-21T10:44:17;5.20;;;4.70;;
29092;SDS011;16167;48.768;14.984;2022-08-21T10:46:56;5.40;;;4.90;;
29092;SDS011;16167;48.768;14.984;2022-08-21T10:49:41;7.57;;;4.82;;
29092;SDS011;16167;48.768;14.984;2022-08-21T10:52:27;5.20;;;4.68;;
29092;SDS011;16167;48.768;14.984;2022-08-21T10:55:10;4.60;;;4.20;;
29092;SDS011;16167;48.768;14.984;2022-08-21T10:57:42;4.95;;;4.45;;
29092;SDS011;16167;48.768;14.984;2022-08-21T11:00:16;5.90;;;4.53;;
29092;SDS011;16167;48.768;14.984;2022-08-21T11:02:49;6.13;;;4.68;;
29092;SDS011;16167;48.768;14.984;2022-08-21T11:05:24;5.55;;;4.07;;
29092;SDS011;16167;48.768;14.984;2022-08-21T11:07:55;4.78;;;4.32;;
29092;SDS011;16167;48.768;14.984;2022-08-21T11:10:31;4.55;;;4.15;;
29092;SDS011;16167;48.768;14.984;2022-08-21T11:13:24;6.57;;;4.40;;
29092;SDS011;16167;48.768;14.984;2022-08-21T11:16:00;5.45;;;4.60;;
29092;SDS011;16167;48.768;14.984;2022-08-21T11:18:34;5.30;;;4.45;;
29092;SDS011;16167;48.768;14.984;2022-08-21T11:21:11;4.63;;;4.22;;
29092;SDS011;16167;48.768;14.984;2022-08-21T11:23:53;4.13;;;3.63;;
29092;SDS011;16167;48.768;14.984;2022-08-21T11:26:32;6.15;;;4.43;;
29092;SDS011;16167;48.768;14.984;2022-08-21T11:29:08;5.07;;;4.57;;
29092;SDS011;16167;48.768;14.984;2022-08-21T11:31:45;5.07;;;3.67;;
29092;SDS011;16167;48.768;14.984;2022-08-21T11:34:32;5.30;;;3.92;;
29092;SDS011;16167;48.768;14.984;2022-08-21T11:37:15;3.92;;;3.53;;
29092;SDS011;16167;48.768;14.984;2022-08-21T11:39:52;4.95;;;4.18;;
29092;SDS011;16167;48.768;14.984;2022-08-21T11:42:28;4.20;;;3.72;;
29092;SDS011;16167;48.768;14.984;2022-08-21T11:45:10;5.05;;;4.20;;
29092;SDS011;16167;48.768;14.984;2022-08-21T11:47:56;5.75;;;4.38;;
29092;SDS011;16167;48.768;14.984;2022-08-21T11:50:31;4.10;;;3.70;;
29092;SDS011;16167;48.768;14.984;2022-08-21T11:53:03;6.05;;;4.82;;
29092;SDS011;16167;48.768;14.984;2022-08-21T11:55:36;6.18;;;4.15;;
29092;SDS011;16167;48.768;14.984;2022-08-21T11:58:10;4.70;;;3.70;;
29092;SDS011;16167;48.768;14.984;2022-08-21T12:00:43;6.05;;;4.18;;
29092;SDS011;16167;48.768;14.984;2022-08-21T12:03:17;4.60;;;4.20;;
29092;SDS011;16167;48.768;14.984;2022-08-21T12:05:55;4.25;;;3.63;;
29092;SDS011;16167;48.768;14.984;2022-08-21T12:08:27;5.45;;;4.00;;
29092;SDS011;16167;48.768;14.984;2022-08-21T12:11:02;4.40;;;3.40;;
29092;SDS011;16167;48.768;14.984;2022-08-21T12:13:35;4.45;;;3.88;;
29092;SDS011;16167;48.768;14.984;2022-08-21T12:16:09;4.57;;;4.10;;
29092;SDS011;16167;48.768;14.984;2022-08-21T12:18:39;4.10;;;3.80;;
29092;SDS011;16167;48.768;14.984;2022-08-21T12:23:58;3.92;;;3.50;;
29092;SDS011;16167;48.768;14.984;2022-08-21T12:26:30;4.18;;;3.60;;
29092;SDS011;16167;48.768;14.984;2022-08-21T12:29:04;5.00;;;3.60;;
29092;SDS011;16167;48.768;14.984;2022-08-21T12:31:50;4.68;;;4.07;;
29092;SDS011;16167;48.768;14.984;2022-08-21T12:34:22;5.88;;;3.83;;
29092;SDS011;16167;48.768;14.984;2022-08-21T12:36:56;6.50;;;3.50;;
29092;SDS011;16167;48.768;14.984;2022-08-21T12:39:27;4.70;;;3.78;;
29092;SDS011;16167;48.768;14.984;2022-08-21T12:41:59;5.20;;;4.72;;
29092;SDS011;16167;48.768;14.984;2022-08-21T12:44:35;4.38;;;3.67;;
29092;SDS011;16167;48.768;14.984;2022-08-21T12:47:13;5.65;;;3.58;;
29092;SDS011;16167;48.768;14.984;2022-08-21T12:49:45;3.72;;;3.42;;
29092;SDS011;16167;48.768;14.984;2022-08-21T12:52:23;5.72;;;3.60;;
29092;SDS011;16167;48.768;14.984;2022-08-21T12:54:58;3.70;;;3.20;;
29092;SDS011;16167;48.768;14.984;2022-08-21T12:57:28;3.67;;;3.05;;
29092;SDS011;16167;48.768;14.984;2022-08-21T12:59:58;3.97;;;3.58;;
29092;SDS011;16167;48.768;14.984;2022-08-21T13:02:29;6.20;;;3.78;;
29092;SDS011;16167;48.768;14.984;2022-08-21T13:05:03;3.50;;;3.20;;
29092;SDS011;16167;48.768;14.984;2022-08-21T13:07:35;5.30;;;3.60;;
29092;SDS011;16167;48.768;14.984;2022-08-21T13:10:05;5.65;;;3.30;;
29092;SDS011;16167;48.768;14.984;2022-08-21T13:12:41;3.55;;;3.10;;
29092;SDS011;16167;48.768;14.984;2022-08-21T13:15:12;3.78;;;3.47;;
29092;SDS011;16167;48.768;14.984;2022-08-21T13:20:18;3.50;;;3.20;;
29092;SDS011;16167;48.768;14.984;2022-08-21T13:22:51;5.68;;;3.40;;
29092;SDS011;16167;48.768;14.984;2022-08-21T13:25:21;4.40;;;3.20;;
29092;SDS011;16167;48.768;14.984;2022-08-21T13:27:57;6.22;;;3.60;;
29092;SDS011;16167;48.768;14.984;2022-08-21T13:30:27;5.53;;;3.70;;
29092;SDS011;16167;48.768;14.984;2022-08-21T13:32:57;5.28;;;3.50;;
29092;SDS011;16167;48.768;14.984;2022-08-21T13:35:30;3.88;;;3.50;;
29092;SDS011;16167;48.768;14.984;2022-08-21T13:38:03;4.40;;;3.28;;
29092;SDS011;16167;48.768;14.984;2022-08-21T13:40:37;4.90;;;3.83;;
29092;SDS011;16167;48.768;14.984;2022-08-21T13:43:10;4.18;;;3.53;;
29092;SDS011;16167;48.768;14.984;2022-08-21T13:45:47;4.32;;;3.78;;
29092;SDS011;16167;48.768;14.984;2022-08-21T13:48:18;3.80;;;3.38;;
29092;SDS011;16167;48.768;14.984;2022-08-21T13:50:47;6.45;;;3.72;;
29092;SDS011;16167;48.768;14.984;2022-08-21T13:53:21;4.20;;;3.80;;
29092;SDS011;16167;48.768;14.984;2022-08-21T13:55:51;3.95;;;3.55;;
29092;SDS011;16167;48.768;14.984;2022-08-21T13:58:27;6.40;;;4.57;;
29092;SDS011;16167;48.768;14.984;2022-08-21T14:00:57;3.92;;;3.38;;
29092;SDS011;16167;48.768;14.984;2022-08-21T14:03:33;4.72;;;4.18;;
29092;SDS011;16167;48.768;14.984;2022-08-21T14:06:10;6.95;;;3.70;;
29092;SDS011;16167;48.768;14.984;2022-08-21T14:08:41;4.15;;;3.60;;
29092;SDS011;16167;48.768;14.984;2022-08-21T14:11:14;5.07;;;3.70;;
29092;SDS011;16167;48.768;14.984;2022-08-21T14:13:44;4.43;;;3.97;;
29092;SDS011;16167;48.768;14.984;2022-08-21T14:16:17;3.90;;;3.25;;
29092;SDS011;16167;48.768;14.984;2022-08-21T14:18:48;6.07;;;3.75;;
29092;SDS011;16167;48.768;14.984;2022-08-21T14:21:30;6.70;;;4.13;;
29092;SDS011;16167;48.768;14.984;2022-08-21T14:24:06;5.93;;;3.85;;
29092;SDS011;16167;48.768;14.984;2022-08-21T14:26:37;7.47;;;3.70;;
29092;SDS011;16167;48.768;14.984;2022-08-21T14:29:13;4.38;;;3.28;;
29092;SDS011;16167;48.768;14.984;2022-08-21T14:31:43;5.38;;;3.70;;
29092;SDS011;16167;48.768;14.984;2022-08-21T14:34:17;5.53;;;3.78;;
29092;SDS011;16167;48.768;14.984;2022-08-21T14:36:46;4.17;;;3.40;;
29092;SDS011;16167;48.768;14.984;2022-08-21T14:39:16;9.68;;;3.90;;
29092;SDS011;16167;48.768;14.984;2022-08-21T14:41:45;3.90;;;3.60;;
29092;SDS011;16167;48.768;14.984;2022-08-21T14:44:15;4.05;;;3.65;;
29092;SDS011;16167;48.768;14.984;2022-08-21T14:49:22;5.70;;;3.70;;
29092;SDS011;16167;48.768;14.984;2022-08-21T14:51:52;3.45;;;3.15;;
29092;SDS011;16167;48.768;14.984;2022-08-21T14:54:25;4.10;;;3.70;;
29092;SDS011;16167;48.768;14.984;2022-08-21T14:56:57;4.05;;;3.60;;
29092;SDS011;16167;48.768;14.984;2022-08-21T14:59:28;5.72;;;3.92;;
29092;SDS011;16167;48.768;14.984;2022-08-21T15:01:58;4.45;;;3.70;;
29092;SDS011;16167;48.768;14.984;2022-08-21T15:04:26;4.57;;;3.70;;
29092;SDS011;16167;48.768;14.984;2022-08-21T15:06:57;6.75;;;4.10;;
29092;SDS011;16167;48.768;14.984;2022-08-21T15:09:26;5.35;;;4.93;;
29092;SDS011;16167;48.768;14.984;2022-08-21T15:11:55;6.60;;;5.35;;
29092;SDS011;16167;48.768;14.984;2022-08-21T15:14:28;5.72;;;4.72;;
29092;SDS011;16167;48.768;14.984;2022-08-21T15:16:59;6.80;;;4.47;;
29092;SDS011;16167;48.768;14.984;2022-08-21T15:19:29;4.68;;;4.28;;
29092;SDS011;16167;48.768;14.984;2022-08-21T15:21:57;4.95;;;3.85;;
29092;SDS011;16167;48.768;14.984;2022-08-21T15:24:28;4.88;;;4.00;;